Terminal Aerodrome Forecast
Issued by NWS Goodland, KS

Home | Current Version | Previous Version | Text Only | Print | Product List | Glossary On
Versions: 1 2 3 4 5 6 7 8 9 10 11 12 13 14 15 16 17 18 19 20 21 22 23 24 25
000
FTUS43 KGLD 151525 AAA
TAFGLD
TAF AMD
KGLD 151525Z 1515/1612 16025G35KT P6SM OVC011
     FM151900 15015G25KT P6SM SCT011 SCT150
     FM160100 10012KT P6SM VCTS SCT040CB BKN110
     FM160300 07010KT P6SM -TSRA BKN030CB
     FM160600 32012KT P6SM -SHRA BKN040=

USA.gov is the U.S. government's official web portal to all federal, state and local government web resources and services.